createdAt,value
2022-08-29T00:01:31.533Z,32.47
2022-08-29T00:06:34.317Z,34.05
2022-08-29T00:11:37.026Z,33.35
2022-08-29T00:16:46.295Z,27.08
2022-08-29T00:21:49.146Z,20.25
2022-08-29T00:26:51.849Z,21.37
2022-08-29T00:31:54.587Z,19.65
2022-08-29T00:36:57.717Z,22.50
2022-08-29T00:42:00.741Z,25.10
2022-08-29T00:47:10.724Z,22.75
2022-08-29T00:52:20.548Z,27.92
2022-08-29T00:57:24.665Z,23.23
2022-08-29T01:02:28.486Z,26.03
2022-08-29T01:07:31.405Z,21.93
2022-08-29T01:12:36.499Z,17.77
2022-08-29T01:17:44.252Z,14.05
2022-08-29T01:23:00.992Z,19.03
2022-08-29T01:28:16.610Z,14.03
2022-08-29T01:33:19.354Z,14.30
2022-08-29T01:38:28.304Z,12.82
2022-08-29T01:43:31.499Z,14.57
2022-08-29T01:48:36.106Z,14.97
2022-08-29T01:53:39.321Z,12.00
2022-08-29T01:58:42.999Z,15.02
2022-08-29T02:03:45.957Z,14.32
2022-08-29T02:08:48.864Z,16.90
2022-08-29T02:13:55.363Z,19.43
2022-08-29T02:18:58.411Z,15.67
2022-08-29T02:24:21.402Z,14.77
2022-08-29T02:29:37.384Z,16.38
2022-08-29T02:34:44.777Z,15.10
2022-08-29T02:39:50.938Z,14.43
2022-08-29T02:44:53.678Z,14.53
2022-08-29T02:49:56.357Z,19.30
2022-08-29T02:54:59.141Z,19.73
2022-08-29T03:00:02.107Z,20.70
2022-08-29T03:05:05.506Z,29.93
2022-08-29T03:10:08.458Z,29.77
2022-08-29T03:15:11.610Z,32.92
2022-08-29T03:20:17.969Z,29.53
2022-08-29T03:25:22.109Z,32.00
2022-08-29T03:30:24.799Z,21.97
2022-08-29T03:35:27.532Z,23.30
2022-08-29T03:40:30.397Z,23.13
2022-08-29T03:45:33.250Z,21.63
2022-08-29T03:50:35.981Z,27.30
2022-08-29T03:55:39.195Z,23.00
2022-08-29T04:00:42.029Z,26.90
2022-08-29T04:05:44.711Z,24.40
2022-08-29T04:10:47.411Z,23.65
2022-08-29T04:15:50.369Z,16.23
2022-08-29T04:21:02.227Z,15.33
2022-08-29T04:26:31.346Z,15.00
2022-08-29T04:31:27.981Z,10.82
2022-08-29T04:36:30.720Z,11.03
2022-08-29T04:41:34.426Z,10.83
2022-08-29T04:46:37.649Z,8.90
2022-08-29T04:51:40.673Z,11.07
2022-08-29T04:56:47.528Z,12.93
2022-08-29T05:01:50.430Z,10.30
2022-08-29T05:06:53.376Z,15.90
2022-08-29T05:11:56.090Z,11.83
2022-08-29T05:16:58.815Z,10.40
2022-08-29T05:22:01.747Z,8.97
2022-08-29T05:27:09.649Z,11.67
2022-08-29T05:32:14.623Z,11.30
2022-08-29T05:37:20.436Z,10.80
2022-08-29T05:42:23.909Z,11.17
2022-08-29T05:47:26.686Z,11.40
2022-08-29T05:52:30.253Z,9.03
2022-08-29T05:57:33.065Z,11.03
2022-08-29T06:02:35.969Z,8.87
2022-08-29T06:07:38.838Z,11.77
2022-08-29T06:12:41.621Z,7.57
2022-08-29T06:17:44.347Z,9.77
2022-08-29T06:22:47.084Z,10.05
2022-08-29T06:27:52.933Z,11.73
2022-08-29T06:32:55.628Z,7.97
2022-08-29T06:37:58.325Z,7.63
2022-08-29T06:43:01.430Z,7.40
2022-08-29T06:48:04.208Z,11.27
2022-08-29T06:53:26.487Z,11.15
2022-08-29T06:58:29.951Z,10.93
2022-08-29T07:03:32.835Z,12.98
2022-08-29T07:08:35.677Z,19.97
2022-08-29T07:13:39.865Z,13.37
2022-08-29T07:18:46.219Z,14.37
2022-08-29T07:23:50.238Z,15.40
2022-08-29T07:28:55.182Z,10.52
2022-08-29T07:34:02.031Z,11.33
2022-08-29T07:39:11.723Z,13.32
2022-08-29T07:44:15.043Z,12.48
2022-08-29T07:49:17.896Z,10.27
2022-08-29T07:54:21.813Z,11.55
2022-08-29T07:59:24.618Z,9.48
2022-08-29T08:04:27.296Z,12.18
2022-08-29T08:09:31.502Z,14.98
2022-08-29T08:14:35.070Z,16.35
2022-08-29T08:19:38.451Z,13.10
2022-08-29T08:24:41.182Z,14.52
2022-08-29T08:29:44.358Z,13.50
2022-08-29T08:34:47.110Z,11.75
2022-08-29T08:39:49.869Z,11.15
2022-08-29T08:45:13.126Z,11.88
2022-08-29T08:50:54.269Z,12.07
2022-08-29T08:55:59.950Z,12.07
2022-08-29T09:01:40.986Z,11.15
2022-08-29T09:06:55.301Z,8.02
2022-08-29T09:12:31.074Z,10.55
2022-08-29T09:17:53.192Z,11.55
2022-08-29T09:23:06.333Z,10.55
2022-08-29T09:28:10.109Z,9.60
2022-08-29T09:33:15.223Z,9.05
2022-08-29T09:38:18.038Z,8.35
2022-08-29T09:43:43.737Z,9.43
2022-08-29T09:48:57.842Z,9.13
2022-08-29T09:54:15.857Z,7.03
2022-08-29T09:59:36.561Z,10.48
2022-08-29T10:04:41.799Z,7.25
2022-08-29T10:10:02.070Z,11.45
2022-08-29T10:15:10.055Z,7.82
2022-08-29T10:20:12.934Z,6.22
2022-08-29T10:25:24.605Z,11.15
2022-08-29T10:30:32.459Z,12.55
2022-08-29T10:35:41.203Z,8.63
2022-08-29T10:41:09.444Z,9.07
2022-08-29T10:46:12.210Z,8.18
2022-08-29T10:51:27.542Z,9.15
2022-08-29T10:56:42.599Z,7.07
2022-08-29T11:01:55.713Z,8.65
2022-08-29T11:07:18.241Z,6.53
2022-08-29T11:12:48.244Z,7.05
2022-08-29T11:18:06.047Z,7.40
2022-08-29T11:23:26.575Z,8.80
2022-08-29T11:34:14.796Z,9.20
2022-08-29T11:39:41.297Z,9.60
2022-08-29T11:44:55.519Z,7.75
2022-08-29T11:50:05.185Z,10.57
2022-08-29T11:55:46.303Z,4.57
2022-08-29T12:00:54.295Z,7.85
2022-08-29T12:06:04.367Z,5.53
2022-08-29T12:11:07.805Z,5.70
2022-08-29T12:16:12.212Z,5.07
2022-08-29T12:21:34.323Z,6.75
2022-08-29T12:26:45.733Z,6.00
2022-08-29T12:32:22.639Z,5.60
2022-08-29T12:37:35.151Z,4.22
2022-08-29T12:42:59.818Z,3.85
2022-08-29T12:48:23.682Z,3.42
2022-08-29T12:53:33.414Z,3.78
2022-08-29T12:58:39.655Z,5.15
2022-08-29T13:03:42.402Z,3.63
2022-08-29T13:08:49.436Z,7.50
2022-08-29T13:14:03.315Z,6.07
2022-08-29T13:19:18.141Z,8.07
2022-08-29T13:24:21.686Z,5.82
2022-08-29T13:34:37.905Z,5.38
2022-08-29T13:39:46.511Z,5.25
2022-08-29T13:45:00.312Z,4.20
2022-08-29T13:50:11.007Z,4.43
2022-08-29T13:55:13.760Z,6.65
2022-08-29T14:00:17.121Z,3.88
2022-08-29T14:05:19.871Z,5.65
2022-08-29T14:10:22.833Z,4.03
2022-08-29T14:15:25.533Z,8.07
2022-08-29T14:20:28.295Z,3.72
2022-08-29T14:25:31.071Z,5.43
2022-08-29T14:30:33.878Z,6.72
2022-08-29T14:35:36.957Z,6.50
2022-08-29T14:40:45.472Z,5.47
2022-08-29T14:45:48.428Z,3.72
2022-08-29T14:50:51.119Z,4.57
2022-08-29T14:55:54.995Z,3.95
2022-08-29T15:00:57.715Z,6.90
2022-08-29T15:06:01.276Z,3.90
2022-08-29T15:11:04.032Z,4.40
2022-08-29T15:16:07.885Z,7.68
2022-08-29T15:21:10.632Z,2.60
2022-08-29T15:26:13.718Z,2.97
2022-08-29T15:31:16.610Z,4.57
2022-08-29T15:36:19.386Z,5.22
2022-08-29T15:41:22.225Z,3.47
2022-08-29T15:46:25.415Z,4.07
2022-08-29T15:51:29.645Z,4.60
2022-08-29T15:56:35.401Z,5.63
2022-08-29T16:01:41.113Z,3.83
2022-08-29T16:06:44.232Z,5.78
2022-08-29T16:11:48.621Z,4.10
2022-08-29T16:16:52.022Z,5.95
2022-08-29T16:21:59.848Z,5.28
2022-08-29T16:27:02.691Z,6.05
2022-08-29T16:32:07.715Z,3.25
2022-08-29T16:37:10.813Z,5.38
2022-08-29T16:42:14.016Z,5.43
2022-08-29T16:47:16.785Z,5.45
2022-08-29T16:52:19.482Z,4.85
2022-08-29T16:57:23.831Z,4.82
2022-08-29T17:02:26.669Z,5.38
2022-08-29T17:07:35.322Z,4.53
2022-08-29T17:12:37.995Z,3.88
2022-08-29T17:17:40.764Z,4.22
2022-08-29T17:22:43.514Z,3.08
2022-08-29T17:27:55.600Z,6.10
2022-08-29T17:33:04.184Z,4.95
2022-08-29T17:38:07.047Z,2.85
2022-08-29T17:43:11.610Z,6.78
2022-08-29T17:48:14.508Z,6.78
2022-08-29T17:53:18.504Z,5.35
2022-08-29T17:58:21.943Z,5.95
2022-08-29T18:03:24.901Z,4.75
2022-08-29T18:08:27.730Z,7.38
2022-08-29T18:13:31.094Z,4.82
2022-08-29T18:18:33.896Z,3.10
2022-08-29T18:23:36.885Z,3.83
2022-08-29T18:28:41.018Z,6.47
2022-08-29T18:33:59.540Z,6.18
2022-08-29T18:39:04.227Z,6.53
2022-08-29T18:44:07.649Z,5.63
2022-08-29T18:49:11.681Z,6.93
2022-08-29T18:54:18.946Z,6.72
2022-08-29T18:59:24.009Z,5.00
2022-08-29T19:04:26.766Z,5.88
2022-08-29T19:09:29.509Z,5.95
2022-08-29T19:14:32.389Z,8.53
2022-08-29T19:19:55.099Z,6.07
2022-08-29T19:24:58.111Z,8.27
2022-08-29T19:30:05.301Z,8.33
2022-08-29T19:35:11.155Z,6.97
2022-08-29T19:40:16.223Z,8.43
2022-08-29T19:45:20.899Z,9.37
2022-08-29T19:50:24.829Z,5.70
2022-08-29T19:55:29.741Z,8.83
2022-08-29T20:00:33.721Z,7.13
2022-08-29T20:05:36.875Z,7.00
2022-08-29T20:10:39.592Z,6.97
2022-08-29T20:15:43.234Z,8.93
2022-08-29T20:20:46.695Z,6.70
2022-08-29T20:25:50.058Z,5.10
2022-08-29T20:30:53.174Z,9.43
2022-08-29T20:36:14.322Z,6.90
2022-08-29T20:41:17.222Z,7.67
2022-08-29T20:46:24.168Z,6.10
2022-08-29T20:51:26.922Z,5.17
2022-08-29T20:56:29.701Z,7.50
2022-08-29T21:01:34.665Z,6.83
2022-08-29T21:06:38.849Z,9.40
2022-08-29T21:11:41.574Z,8.00
2022-08-29T21:16:44.426Z,7.47
2022-08-29T21:21:47.348Z,6.73
2022-08-29T21:26:50.141Z,7.30
2022-08-29T21:31:54.087Z,5.57
2022-08-29T21:36:56.783Z,8.20
2022-08-29T21:42:01.403Z,8.90
2022-08-29T21:47:07.167Z,7.70
2022-08-29T21:52:09.952Z,10.17
2022-08-29T21:57:18.762Z,8.93
2022-08-29T22:02:21.649Z,9.03
2022-08-29T22:07:24.453Z,6.17
2022-08-29T22:12:28.794Z,11.43
2022-08-29T22:17:32.321Z,8.37
2022-08-29T22:22:35.247Z,8.83
2022-08-29T22:27:38.062Z,8.30
2022-08-29T22:32:41.172Z,8.17
2022-08-29T22:37:44.177Z,7.10
2022-08-29T22:42:47.094Z,7.77
2022-08-29T22:47:49.801Z,9.80
2022-08-29T22:52:55.980Z,8.60
2022-08-29T22:58:00.399Z,12.27
2022-08-29T23:03:03.447Z,7.37
2022-08-29T23:08:06.246Z,8.43
2022-08-29T23:13:09.030Z,6.57
2022-08-29T23:18:11.762Z,9.07
2022-08-29T23:23:14.831Z,7.73
2022-08-29T23:28:17.715Z,8.83
2022-08-29T23:33:20.464Z,9.40
2022-08-29T23:38:23.420Z,5.80
2022-08-29T23:43:27.972Z,8.53
2022-08-29T23:48:30.685Z,7.57
2022-08-29T23:53:33.460Z,11.40
2022-08-29T23:58:36.331Z,8.63
